createdAt,value
2022-10-27T10:45:23.941Z,16.30
2022-10-27T10:50:28.703Z,16.22
2022-10-27T10:55:37.650Z,16.13
2022-10-27T11:00:54.121Z,16.08
2022-10-27T11:06:01.056Z,16.07
2022-10-27T11:11:07.340Z,16.07
2022-10-27T11:16:12.197Z,16.07
2022-10-27T11:21:22.763Z,16.07
2022-10-27T11:26:34.839Z,16.04
2022-10-27T11:32:09.789Z,16.01
2022-10-27T11:37:33.386Z,15.98
2022-10-27T11:42:47.926Z,15.95
2022-10-27T11:47:58.662Z,15.97
2022-10-27T11:53:02.968Z,16.32
2022-10-27T11:58:11.294Z,16.65
2022-10-27T12:03:51.799Z,16.80
2022-10-27T12:09:16.142Z,16.71
2022-10-27T12:14:22.353Z,16.50
2022-10-27T12:19:30.290Z,16.29
2022-10-27T12:24:40.267Z,16.09
2022-10-27T12:29:48.771Z,15.83
2022-10-27T12:35:25.133Z,15.64
2022-10-27T12:40:50.369Z,15.48
2022-10-27T12:46:11.987Z,15.34
2022-10-27T12:51:29.025Z,15.27
2022-10-27T12:57:10.526Z,15.17
2022-10-27T13:02:14.463Z,15.12
2022-10-27T13:07:40.681Z,15.10
2022-10-27T13:13:26.975Z,15.10
2022-10-27T13:18:48.517Z,15.13
2022-10-27T13:24:13.694Z,15.15
2022-10-27T13:29:44.405Z,15.15
2022-10-27T13:35:27.454Z,15.11
2022-10-27T13:40:39.241Z,15.04
2022-10-27T13:45:42.327Z,14.96
2022-10-27T13:50:50.875Z,14.89
2022-10-27T13:55:54.952Z,14.78
2022-10-27T14:01:11.759Z,14.66
2022-10-27T14:06:16.956Z,14.56
2022-10-27T14:11:25.676Z,14.53
2022-10-27T14:16:36.272Z,14.54
2022-10-27T14:21:46.393Z,14.51
2022-10-27T14:26:49.548Z,14.45
2022-10-27T14:31:53.513Z,14.32
2022-10-27T14:36:56.645Z,14.17
2022-10-27T14:42:12.121Z,14.02
2022-10-27T14:47:17.593Z,13.89
2022-10-27T14:52:25.068Z,13.78
2022-10-27T14:57:35.979Z,13.67
2022-10-27T15:02:40.042Z,13.56
2022-10-27T15:07:46.103Z,13.44
2022-10-27T15:12:59.522Z,13.32
2022-10-27T15:18:11.383Z,13.25
2022-10-27T15:23:16.753Z,13.22
2022-10-27T15:28:27.205Z,13.14
2022-10-27T15:33:39.396Z,12.99
2022-10-27T15:38:48.258Z,12.83
2022-10-27T15:44:03.502Z,12.71
2022-10-27T15:49:22.352Z,12.65
2022-10-27T15:54:52.927Z,12.67
2022-10-27T16:00:07.373Z,12.69
2022-10-27T16:05:31.710Z,12.62
2022-10-27T16:10:35.009Z,12.49
2022-10-27T16:15:46.634Z,12.34
2022-10-27T16:20:49.851Z,12.15
2022-10-27T16:25:53.783Z,12.02
2022-10-27T16:30:57.085Z,11.94
2022-10-27T16:36:00.207Z,11.87
2022-10-27T16:41:03.530Z,11.85
2022-10-27T16:46:06.601Z,11.89
2022-10-27T16:51:17.834Z,11.96
2022-10-27T16:56:21.367Z,12.00
2022-10-27T17:01:24.616Z,11.99
2022-10-27T17:06:27.903Z,11.88
2022-10-27T17:11:31.309Z,11.71
2022-10-27T17:16:35.304Z,11.53
2022-10-27T17:21:38.476Z,11.36
2022-10-27T17:26:41.538Z,11.19
2022-10-27T17:31:44.840Z,11.05
2022-10-27T17:36:48.041Z,10.93
2022-10-27T17:41:51.356Z,10.83
2022-10-27T17:46:54.729Z,10.73
2022-10-27T17:51:58.189Z,10.62
2022-10-27T17:57:01.566Z,10.54
2022-10-27T18:02:05.994Z,10.49
2022-10-27T18:07:09.225Z,10.39
2022-10-27T18:12:12.482Z,10.29
2022-10-27T18:17:16.266Z,10.22
2022-10-27T18:22:19.422Z,10.20
2022-10-27T18:27:22.777Z,10.15
2022-10-27T18:32:26.359Z,10.07
2022-10-27T18:37:30.563Z,10.04
2022-10-27T18:42:33.778Z,10.07
2022-10-27T18:47:38.180Z,10.09
2022-10-27T18:52:41.503Z,10.15
2022-10-27T18:57:44.993Z,10.29
2022-10-27T19:02:51.390Z,10.40
2022-10-27T19:07:55.633Z,10.48
2022-10-27T19:12:59.312Z,10.48
2022-10-27T19:18:02.404Z,10.45
2022-10-27T19:23:05.519Z,10.42
2022-10-27T19:28:08.583Z,10.41
2022-10-27T19:33:12.235Z,10.38
2022-10-27T19:38:16.433Z,10.35
2022-10-27T19:43:19.567Z,10.31
2022-10-27T19:48:22.674Z,10.28
2022-10-27T19:53:25.833Z,10.27
2022-10-27T19:58:28.986Z,10.24
2022-10-27T20:03:32.338Z,10.22
2022-10-27T20:08:39.927Z,10.19
2022-10-27T20:13:48.529Z,10.16
2022-10-27T20:18:52.227Z,10.13
2022-10-27T20:23:55.592Z,10.07
2022-10-27T20:28:59.082Z,10.02
2022-10-27T20:34:06.379Z,9.97
2022-10-27T20:39:12.357Z,9.90
2022-10-27T20:44:20.452Z,9.84
2022-10-27T20:49:23.591Z,9.82
2022-10-27T20:54:26.626Z,9.85
2022-10-27T20:59:29.815Z,9.92
2022-10-27T21:04:32.953Z,9.96
2022-10-27T21:09:36.248Z,10.05
2022-10-27T21:14:39.320Z,10.19
2022-10-27T21:19:42.427Z,10.35
2022-10-27T21:24:45.539Z,10.42
2022-10-27T21:29:48.751Z,10.39
2022-10-27T21:34:51.880Z,10.34
2022-10-27T21:39:56.212Z,10.29
2022-10-27T21:44:59.326Z,10.31
2022-10-27T21:50:03.308Z,10.34
2022-10-27T21:55:07.320Z,10.33
2022-10-27T22:00:13.219Z,10.39
2022-10-27T22:05:16.594Z,10.46
2022-10-27T22:10:19.839Z,10.46
2022-10-27T22:15:22.927Z,10.42
2022-10-27T22:20:26.088Z,10.35
2022-10-27T22:25:29.950Z,10.28
2022-10-27T22:30:33.090Z,10.21
2022-10-27T22:35:36.649Z,10.12
2022-10-27T22:40:39.722Z,10.04
2022-10-27T22:45:42.801Z,9.97
2022-10-27T22:50:45.981Z,9.92
2022-10-27T22:55:49.125Z,9.84
2022-10-27T23:00:52.356Z,9.80
2022-10-27T23:05:55.441Z,9.85
2022-10-27T23:11:01.368Z,9.99
2022-10-27T23:16:08.151Z,10.11
2022-10-27T23:21:14.902Z,10.27
2022-10-27T23:26:23.456Z,10.47
2022-10-27T23:31:28.167Z,10.68
2022-10-27T23:36:34.169Z,10.86
2022-10-27T23:41:37.270Z,11.02
2022-10-27T23:46:40.627Z,11.13
2022-10-27T23:51:43.945Z,11.21
2022-10-27T23:56:47.093Z,11.30
